sensor_id;sensor_type;location;lat;lon;timestamp;temperature;humidity
1678;DHT22;6034;46.864;15.216;2023-02-28T06:02:23;0.40;99.90
1678;DHT22;6034;46.864;15.216;2023-02-28T06:04:51;0.50;99.90
1678;DHT22;6034;46.864;15.216;2023-02-28T06:07:18;0.50;99.90
1678;DHT22;6034;46.864;15.216;2023-02-28T06:09:45;0.50;99.90
1678;DHT22;6034;46.864;15.216;2023-02-28T06:12:12;0.50;99.90
1678;DHT22;6034;46.864;15.216;2023-02-28T06:14:39;0.30;99.90
1678;DHT22;6034;46.864;15.216;2023-02-28T06:17:08;0.10;99.90
1678;DHT22;6034;46.864;15.216;2023-02-28T06:19:38;0.30;99.90
1678;DHT22;6034;46.864;15.216;2023-02-28T06:22:07;0.40;99.90
1678;DHT22;6034;46.864;15.216;2023-02-28T06:24:34;0.40;99.90
1678;DHT22;6034;46.864;15.216;2023-02-28T06:27:01;0.30;99.90
1678;DHT22;6034;46.864;15.216;2023-02-28T06:29:31;0.30;99.90
1678;DHT22;6034;46.864;15.216;2023-02-28T06:31:58;0.40;99.90
1678;DHT22;6034;46.864;15.216;2023-02-28T06:34:25;0.50;99.90
1678;DHT22;6034;46.864;15.216;2023-02-28T06:36:54;0.50;99.90
1678;DHT22;6034;46.864;15.216;2023-02-28T06:39:21;0.40;99.90
1678;DHT22;6034;46.864;15.216;2023-02-28T06:41:48;0.50;99.90
1678;DHT22;6034;46.864;15.216;2023-02-28T06:44:18;0.30;99.90
1678;DHT22;6034;46.864;15.216;2023-02-28T06:46:45;0.30;99.90
1678;DHT22;6034;46.864;15.216;2023-02-28T06:49:12;0.40;99.90
1678;DHT22;6034;46.864;15.216;2023-02-28T06:51:41;0.40;99.90
1678;DHT22;6034;46.864;15.216;2023-02-28T06:54:12;0.40;99.90
1678;DHT22;6034;46.864;15.216;2023-02-28T06:56:40;0.40;99.90
1678;DHT22;6034;46.864;15.216;2023-02-28T06:59:07;0.50;99.90
1678;DHT22;6034;46.864;15.216;2023-02-28T07:01:34;0.50;99.90
1678;DHT22;6034;46.864;15.216;2023-02-28T07:04:02;0.50;99.90
1678;DHT22;6034;46.864;15.216;2023-02-28T07:06:29;0.60;99.90
1678;DHT22;6034;46.864;15.216;2023-02-28T07:08:56;0.50;99.90
1678;DHT22;6034;46.864;15.216;2023-02-28T07:11:26;0.60;99.90
1678;DHT22;6034;46.864;15.216;2023-02-28T07:13:54;0.60;99.90
1678;DHT22;6034;46.864;15.216;2023-02-28T07:16:23;0.60;99.90
1678;DHT22;6034;46.864;15.216;2023-02-28T07:18:52;0.60;99.90
1678;DHT22;6034;46.864;15.216;2023-02-28T07:21:20;0.50;99.90
1678;DHT22;6034;46.864;15.216;2023-02-28T07:23:47;0.50;99.90
1678;DHT22;6034;46.864;15.216;2023-02-28T07:26:16;0.40;99.90
1678;DHT22;6034;46.864;15.216;2023-02-28T07:28:47;0.50;99.90
1678;DHT22;6034;46.864;15.216;2023-02-28T07:31:15;0.50;99.90
1678;DHT22;6034;46.864;15.216;2023-02-28T07:33:43;0.30;99.90
1678;DHT22;6034;46.864;15.216;2023-02-28T07:36:12;0.40;99.90
1678;DHT22;6034;46.864;15.216;2023-02-28T07:38:41;0.40;99.90
1678;DHT22;6034;46.864;15.216;2023-02-28T07:41:08;0.50;99.90
1678;DHT22;6034;46.864;15.216;2023-02-28T07:43:36;0.50;99.90
1678;DHT22;6034;46.864;15.216;2023-02-28T07:46:07;0.40;99.90
1678;DHT22;6034;46.864;15.216;2023-02-28T07:48:35;0.30;99.90
1678;DHT22;6034;46.864;15.216;2023-02-28T07:51:03;0.50;99.90
1678;DHT22;6034;46.864;15.216;2023-02-28T07:53:31;0.60;99.90
1678;DHT22;6034;46.864;15.216;2023-02-28T07:55:59;0.50;99.90
1678;DHT22;6034;46.864;15.216;2023-02-28T07:58:27;0.50;99.90
1678;DHT22;6034;46.864;15.216;2023-02-28T08:00:54;0.40;99.90
1678;DHT22;6034;46.864;15.216;2023-02-28T08:03:24;0.30;99.90
1678;DHT22;6034;46.864;15.216;2023-02-28T08:05:51;0.40;99.90
1678;DHT22;6034;46.864;15.216;2023-02-28T08:08:19;0.50;99.90
1678;DHT22;6034;46.864;15.216;2023-02-28T08:10:46;0.50;99.90
1678;DHT22;6034;46.864;15.216;2023-02-28T08:13:13;0.50;99.90
1678;DHT22;6034;46.864;15.216;2023-02-28T08:15:41;0.50;99.90
1678;DHT22;6034;46.864;15.216;2023-02-28T08:18:11;0.60;99.90
1678;DHT22;6034;46.864;15.216;2023-02-28T08:20:39;0.70;99.90
1678;DHT22;6034;46.864;15.216;2023-02-28T08:23:07;0.80;99.90
1678;DHT22;6034;46.864;15.216;2023-02-28T08:25:34;0.60;99.90
1678;DHT22;6034;46.864;15.216;2023-02-28T08:28:01;0.70;99.90
1678;DHT22;6034;46.864;15.216;2023-02-28T08:30:28;0.70;99.90
1678;DHT22;6034;46.864;15.216;2023-02-28T08:32:56;0.70;99.90
1678;DHT22;6034;46.864;15.216;2023-02-28T08:35:23;0.70;99.90
1678;DHT22;6034;46.864;15.216;2023-02-28T08:37:51;0.80;99.90
1678;DHT22;6034;46.864;15.216;2023-02-28T08:40:19;0.80;99.90
1678;DHT22;6034;46.864;15.216;2023-02-28T08:42:46;0.70;99.90
1678;DHT22;6034;46.864;15.216;2023-02-28T08:45:14;0.80;99.90
1678;DHT22;6034;46.864;15.216;2023-02-28T08:47:41;0.80;99.90
1678;DHT22;6034;46.864;15.216;2023-02-28T08:50:09;1.00;99.90
1678;DHT22;6034;46.864;15.216;2023-02-28T08:52:37;1.00;99.90
1678;DHT22;6034;46.864;15.216;2023-02-28T08:55:06;0.90;99.90
1678;DHT22;6034;46.864;15.216;2023-02-28T08:57:35;1.00;99.90
1678;DHT22;6034;46.864;15.216;2023-02-28T09:00:04;1.00;99.90
1678;DHT22;6034;46.864;15.216;2023-02-28T09:02:31;1.00;99.90
1678;DHT22;6034;46.864;15.216;2023-02-28T09:04:58;1.10;99.90
1678;DHT22;6034;46.864;15.216;2023-02-28T09:07:25;1.10;99.90
1678;DHT22;6034;46.864;15.216;2023-02-28T09:09:53;1.20;99.90
1678;DHT22;6034;46.864;15.216;2023-02-28T09:12:26;1.20;99.90
1678;DHT22;6034;46.864;15.216;2023-02-28T09:14:53;1.30;99.90
1678;DHT22;6034;46.864;15.216;2023-02-28T09:17:21;1.20;99.90
1678;DHT22;6034;46.864;15.216;2023-02-28T09:19:49;1.30;99.90
1678;DHT22;6034;46.864;15.216;2023-02-28T09:22:17;1.30;99.90
1678;DHT22;6034;46.864;15.216;2023-02-28T09:24:44;1.40;99.90
1678;DHT22;6034;46.864;15.216;2023-02-28T09:27:11;1.20;99.90
1678;DHT22;6034;46.864;15.216;2023-02-28T09:29:40;1.00;99.90
1678;DHT22;6034;46.864;15.216;2023-02-28T09:32:07;1.00;99.90
1678;DHT22;6034;46.864;15.216;2023-02-28T09:34:34;1.20;99.90
1678;DHT22;6034;46.864;15.216;2023-02-28T09:37:02;1.20;99.90
1678;DHT22;6034;46.864;15.216;2023-02-28T09:39:29;1.00;99.90
1678;DHT22;6034;46.864;15.216;2023-02-28T09:41:57;1.00;99.90
1678;DHT22;6034;46.864;15.216;2023-02-28T09:44:28;1.00;99.90
1678;DHT22;6034;46.864;15.216;2023-02-28T09:47:00;1.10;99.90
1678;DHT22;6034;46.864;15.216;2023-02-28T09:49:35;1.10;99.90
1678;DHT22;6034;46.864;15.216;2023-02-28T09:52:07;0.90;99.90
1678;DHT22;6034;46.864;15.216;2023-02-28T09:54:36;0.80;99.90
1678;DHT22;6034;46.864;15.216;2023-02-28T09:57:07;1.20;99.90
1678;DHT22;6034;46.864;15.216;2023-02-28T09:59:57;1.30;99.90
1678;DHT22;6034;46.864;15.216;2023-02-28T10:02:48;1.10;99.90
1678;DHT22;6034;46.864;15.216;2023-02-28T10:05:19;1.10;99.90
1678;DHT22;6034;46.864;15.216;2023-02-28T10:08:00;0.90;99.90
1678;DHT22;6034;46.864;15.216;2023-02-28T10:10:36;1.10;99.90
1678;DHT22;6034;46.864;15.216;2023-02-28T10:13:11;1.40;99.90
1678;DHT22;6034;46.864;15.216;2023-02-28T10:15:41;1.40;99.90
1678;DHT22;6034;46.864;15.216;2023-02-28T10:18:14;1.10;99.90
1678;DHT22;6034;46.864;15.216;2023-02-28T10:20:43;1.30;99.90
1678;DHT22;6034;46.864;15.216;2023-02-28T10:23:14;1.40;99.90
1678;DHT22;6034;46.864;15.216;2023-02-28T10:25:47;1.50;99.90
1678;DHT22;6034;46.864;15.216;2023-02-28T10:28:17;1.70;99.90
1678;DHT22;6034;46.864;15.216;2023-02-28T10:30:47;1.70;99.90
1678;DHT22;6034;46.864;15.216;2023-02-28T10:33:22;1.70;99.90
1678;DHT22;6034;46.864;15.216;2023-02-28T10:35:50;1.80;99.90
1678;DHT22;6034;46.864;15.216;2023-02-28T10:38:20;1.70;99.90
1678;DHT22;6034;46.864;15.216;2023-02-28T10:40:47;1.70;99.90
1678;DHT22;6034;46.864;15.216;2023-02-28T10:43:23;2.00;99.90
1678;DHT22;6034;46.864;15.216;2023-02-28T10:46:00;2.10;99.90
1678;DHT22;6034;46.864;15.216;2023-02-28T10:48:36;2.00;99.90
1678;DHT22;6034;46.864;15.216;2023-02-28T10:51:05;1.90;99.90
1678;DHT22;6034;46.864;15.216;2023-02-28T10:53:52;2.10;99.90
1678;DHT22;6034;46.864;15.216;2023-02-28T10:56:20;2.30;99.90
1678;DHT22;6034;46.864;15.216;2023-02-28T10:58:52;2.30;99.90
1678;DHT22;6034;46.864;15.216;2023-02-28T11:01:21;2.50;99.90
1678;DHT22;6034;46.864;15.216;2023-02-28T11:03:51;2.40;99.90
1678;DHT22;6034;46.864;15.216;2023-02-28T11:06:21;2.50;99.90
1678;DHT22;6034;46.864;15.216;2023-02-28T11:08:51;2.60;99.90
1678;DHT22;6034;46.864;15.216;2023-02-28T11:11:20;2.30;99.90
1678;DHT22;6034;46.864;15.216;2023-02-28T11:13:52;1.90;99.90
1678;DHT22;6034;46.864;15.216;2023-02-28T11:16:21;2.40;99.90
1678;DHT22;6034;46.864;15.216;2023-02-28T11:18:52;2.60;99.90
1678;DHT22;6034;46.864;15.216;2023-02-28T11:21:23;2.60;99.90
1678;DHT22;6034;46.864;15.216;2023-02-28T11:23:57;2.70;99.90
1678;DHT22;6034;46.864;15.216;2023-02-28T11:26:39;2.60;99.90
1678;DHT22;6034;46.864;15.216;2023-02-28T11:29:18;2.80;99.90
1678;DHT22;6034;46.864;15.216;2023-02-28T11:32:03;2.80;99.90
1678;DHT22;6034;46.864;15.216;2023-02-28T11:34:32;3.00;99.90
1678;DHT22;6034;46.864;15.216;2023-02-28T11:37:01;3.00;99.90
1678;DHT22;6034;46.864;15.216;2023-02-28T11:39:33;3.10;99.90
1678;DHT22;6034;46.864;15.216;2023-02-28T11:42:22;3.10;99.90
1678;DHT22;6034;46.864;15.216;2023-02-28T11:45:03;3.20;99.90
1678;DHT22;6034;46.864;15.216;2023-02-28T11:47:43;3.10;99.90
1678;DHT22;6034;46.864;15.216;2023-02-28T11:50:24;3.10;99.90
1678;DHT22;6034;46.864;15.216;2023-02-28T11:52:56;3.10;99.90
1678;DHT22;6034;46.864;15.216;2023-02-28T11:55:25;3.00;99.90
1678;DHT22;6034;46.864;15.216;2023-02-28T11:58:13;3.20;99.90
1678;DHT22;6034;46.864;15.216;2023-02-28T12:00:57;3.30;99.90
1678;DHT22;6034;46.864;15.216;2023-02-28T12:03:40;3.20;99.90
1678;DHT22;6034;46.864;15.216;2023-02-28T12:06:19;3.40;99.90
1678;DHT22;6034;46.864;15.216;2023-02-28T12:08:58;3.30;99.90
1678;DHT22;6034;46.864;15.216;2023-02-28T12:11:41;3.40;99.90
1678;DHT22;6034;46.864;15.216;2023-02-28T12:17:17;3.40;99.90
1678;DHT22;6034;46.864;15.216;2023-02-28T12:19:55;3.40;99.90
1678;DHT22;6034;46.864;15.216;2023-02-28T12:22:31;3.50;99.90
1678;DHT22;6034;46.864;15.216;2023-02-28T12:25:18;3.60;99.90
1678;DHT22;6034;46.864;15.216;2023-02-28T12:27:48;3.60;99.90
1678;DHT22;6034;46.864;15.216;2023-02-28T12:30:21;3.60;99.90
1678;DHT22;6034;46.864;15.216;2023-02-28T12:32:53;3.60;99.90
1678;DHT22;6034;46.864;15.216;2023-02-28T12:35:24;3.60;99.90
1678;DHT22;6034;46.864;15.216;2023-02-28T12:37:56;3.70;99.90
1678;DHT22;6034;46.864;15.216;2023-02-28T12:40:27;3.80;99.90
1678;DHT22;6034;46.864;15.216;2023-02-28T12:42:59;3.80;99.90
1678;DHT22;6034;46.864;15.216;2023-02-28T12:45:39;3.70;99.90
1678;DHT22;6034;46.864;15.216;2023-02-28T12:48:09;3.30;99.90
1678;DHT22;6034;46.864;15.216;2023-02-28T12:50:40;3.40;99.90
1678;DHT22;6034;46.864;15.216;2023-02-28T12:53:15;3.60;99.90
1678;DHT22;6034;46.864;15.216;2023-02-28T12:55:49;3.60;99.90
1678;DHT22;6034;46.864;15.216;2023-02-28T12:58:23;3.50;99.90
1678;DHT22;6034;46.864;15.216;2023-02-28T13:04:27;3.30;99.90
1678;DHT22;6034;46.864;15.216;2023-02-28T13:07:10;3.60;99.90
1678;DHT22;6034;46.864;15.216;2023-02-28T13:09:40;3.70;99.90
1678;DHT22;6034;46.864;15.216;2023-02-28T13:12:13;3.70;99.90
1678;DHT22;6034;46.864;15.216;2023-02-28T13:14:42;3.60;99.90
1678;DHT22;6034;46.864;15.216;2023-02-28T13:17:18;3.80;99.90
1678;DHT22;6034;46.864;15.216;2023-02-28T13:19:57;3.90;99.90
1678;DHT22;6034;46.864;15.216;2023-02-28T13:22:39;3.90;99.90
1678;DHT22;6034;46.864;15.216;2023-02-28T13:31:28;3.60;99.90
1678;DHT22;6034;46.864;15.216;2023-02-28T13:34:14;3.70;99.90
1678;DHT22;6034;46.864;15.216;2023-02-28T13:36:41;3.70;99.90
1678;DHT22;6034;46.864;15.216;2023-02-28T13:42:33;3.80;99.90
1678;DHT22;6034;46.864;15.216;2023-02-28T13:45:24;3.90;99.90
1678;DHT22;6034;46.864;15.216;2023-02-28T13:47:58;3.70;99.90
1678;DHT22;6034;46.864;15.216;2023-02-28T13:50:33;3.80;99.90
1678;DHT22;6034;46.864;15.216;2023-02-28T13:53:30;3.90;99.90
1678;DHT22;6034;46.864;15.216;2023-02-28T13:56:05;3.80;99.90
1678;DHT22;6034;46.864;15.216;2023-02-28T13:58:42;3.90;99.90
1678;DHT22;6034;46.864;15.216;2023-02-28T14:04:57;3.80;99.90
1678;DHT22;6034;46.864;15.216;2023-02-28T14:07:29;3.90;99.90
1678;DHT22;6034;46.864;15.216;2023-02-28T14:10:02;3.80;99.90
1678;DHT22;6034;46.864;15.216;2023-02-28T14:15:46;3.70;99.90
1678;DHT22;6034;46.864;15.216;2023-02-28T14:18:21;3.80;99.90
1678;DHT22;6034;46.864;15.216;2023-02-28T14:20:55;3.80;99.90
1678;DHT22;6034;46.864;15.216;2023-02-28T14:26:38;3.90;99.90
1678;DHT22;6034;46.864;15.216;2023-02-28T14:29:35;3.90;99.90
1678;DHT22;6034;46.864;15.216;2023-02-28T14:32:15;3.80;99.90
1678;DHT22;6034;46.864;15.216;2023-02-28T14:34:50;3.90;99.90
1678;DHT22;6034;46.864;15.216;2023-02-28T14:37:29;3.80;99.90
1678;DHT22;6034;46.864;15.216;2023-02-28T14:39:58;3.80;99.90
1678;DHT22;6034;46.864;15.216;2023-02-28T14:42:31;3.80;99.90
1678;DHT22;6034;46.864;15.216;2023-02-28T14:45:00;3.80;99.90
1678;DHT22;6034;46.864;15.216;2023-02-28T14:47:30;3.70;99.90
1678;DHT22;6034;46.864;15.216;2023-02-28T14:49:59;3.70;99.90
1678;DHT22;6034;46.864;15.216;2023-02-28T14:52:29;3.80;99.90
1678;DHT22;6034;46.864;15.216;2023-02-28T14:54:58;3.90;99.90
1678;DHT22;6034;46.864;15.216;2023-02-28T14:57:27;3.80;99.90
1678;DHT22;6034;46.864;15.216;2023-02-28T15:00:00;3.70;99.90
1678;DHT22;6034;46.864;15.216;2023-02-28T15:02:31;3.70;99.90
1678;DHT22;6034;46.864;15.216;2023-02-28T15:05:02;3.70;99.90
1678;DHT22;6034;46.864;15.216;2023-02-28T15:07:38;3.60;99.90
1678;DHT22;6034;46.864;15.216;2023-02-28T15:10:10;3.70;99.90
1678;DHT22;6034;46.864;15.216;2023-02-28T15:12:39;3.70;99.90
1678;DHT22;6034;46.864;15.216;2023-02-28T15:15:14;3.60;99.90
1678;DHT22;6034;46.864;15.216;2023-02-28T15:17:45;3.60;99.90
1678;DHT22;6034;46.864;15.216;2023-02-28T15:20:14;3.60;99.90
1678;DHT22;6034;46.864;15.216;2023-02-28T15:22:45;3.60;99.90
1678;DHT22;6034;46.864;15.216;2023-02-28T15:25:18;3.60;99.90
1678;DHT22;6034;46.864;15.216;2023-02-28T15:27:49;3.60;99.90
1678;DHT22;6034;46.864;15.216;2023-02-28T15:30:20;3.60;99.90
1678;DHT22;6034;46.864;15.216;2023-02-28T15:33:04;3.50;99.90
1678;DHT22;6034;46.864;15.216;2023-02-28T15:35:32;3.50;99.90
1678;DHT22;6034;46.864;15.216;2023-02-28T15:38:15;3.40;99.90
1678;DHT22;6034;46.864;15.216;2023-02-28T15:40:44;3.50;99.90
1678;DHT22;6034;46.864;15.216;2023-02-28T15:43:16;3.50;99.90
1678;DHT22;6034;46.864;15.216;2023-02-28T15:45:46;3.50;99.90
1678;DHT22;6034;46.864;15.216;2023-02-28T15:48:17;3.40;99.90
1678;DHT22;6034;46.864;15.216;2023-02-28T15:50:49;3.50;99.90
1678;DHT22;6034;46.864;15.216;2023-02-28T15:53:22;3.50;99.90
1678;DHT22;6034;46.864;15.216;2023-02-28T15:55:56;3.40;99.90
1678;DHT22;6034;46.864;15.216;2023-02-28T15:58:25;3.50;99.90
1678;DHT22;6034;46.864;15.216;2023-02-28T16:01:16;3.50;99.90
1678;DHT22;6034;46.864;15.216;2023-02-28T16:03:48;3.40;99.90
1678;DHT22;6034;46.864;15.216;2023-02-28T16:06:39;3.40;99.90
1678;DHT22;6034;46.864;15.216;2023-02-28T16:09:12;3.40;99.90
1678;DHT22;6034;46.864;15.216;2023-02-28T16:11:43;3.40;99.90
1678;DHT22;6034;46.864;15.216;2023-02-28T16:14:15;3.40;99.90
1678;DHT22;6034;46.864;15.216;2023-02-28T16:16:46;3.30;99.90
1678;DHT22;6034;46.864;15.216;2023-02-28T16:19:15;3.30;99.90
1678;DHT22;6034;46.864;15.216;2023-02-28T16:21:42;3.30;99.90
1678;DHT22;6034;46.864;15.216;2023-02-28T16:24:11;3.30;99.90
1678;DHT22;6034;46.864;15.216;2023-02-28T16:26:40;3.30;99.90
1678;DHT22;6034;46.864;15.216;2023-02-28T16:29:08;3.20;99.90
1678;DHT22;6034;46.864;15.216;2023-02-28T16:31:38;3.10;99.90
1678;DHT22;6034;46.864;15.216;2023-02-28T16:34:05;3.10;99.90
1678;DHT22;6034;46.864;15.216;2023-02-28T16:36:33;3.10;99.90
1678;DHT22;6034;46.864;15.216;2023-02-28T16:39:00;3.00;99.90
1678;DHT22;6034;46.864;15.216;2023-02-28T16:41:30;3.00;99.90
1678;DHT22;6034;46.864;15.216;2023-02-28T16:43:59;2.90;99.90
1678;DHT22;6034;46.864;15.216;2023-02-28T16:46:31;2.90;99.90
1678;DHT22;6034;46.864;15.216;2023-02-28T16:49:00;2.90;99.90
1678;DHT22;6034;46.864;15.216;2023-02-28T16:51:27;2.90;99.90
1678;DHT22;6034;46.864;15.216;2023-02-28T16:53:55;2.90;99.90
1678;DHT22;6034;46.864;15.216;2023-02-28T16:56:24;2.90;99.90
1678;DHT22;6034;46.864;15.216;2023-02-28T16:58:59;2.80;99.90
1678;DHT22;6034;46.864;15.216;2023-02-28T17:01:28;2.80;99.90
1678;DHT22;6034;46.864;15.216;2023-02-28T17:03:55;2.80;99.90
1678;DHT22;6034;46.864;15.216;2023-02-28T17:06:24;2.80;99.90
1678;DHT22;6034;46.864;15.216;2023-02-28T17:08:54;2.80;99.90
1678;DHT22;6034;46.864;15.216;2023-02-28T17:11:22;2.80;99.90
1678;DHT22;6034;46.864;15.216;2023-02-28T17:13:53;2.70;99.90
1678;DHT22;6034;46.864;15.216;2023-02-28T17:16:25;2.80;99.90
1678;DHT22;6034;46.864;15.216;2023-02-28T17:18:54;2.80;99.90
1678;DHT22;6034;46.864;15.216;2023-02-28T17:21:22;2.70;99.90
1678;DHT22;6034;46.864;15.216;2023-02-28T17:23:51;2.70;99.90
1678;DHT22;6034;46.864;15.216;2023-02-28T17:26:20;2.80;99.90
1678;DHT22;6034;46.864;15.216;2023-02-28T17:28:51;2.80;99.90
1678;DHT22;6034;46.864;15.216;2023-02-28T17:31:22;2.80;99.90
1678;DHT22;6034;46.864;15.216;2023-02-28T17:33:49;2.80;99.90
1678;DHT22;6034;46.864;15.216;2023-02-28T17:36:21;2.80;99.90
1678;DHT22;6034;46.864;15.216;2023-02-28T17:38:50;2.80;99.90
1678;DHT22;6034;46.864;15.216;2023-02-28T17:41:18;2.80;99.90
1678;DHT22;6034;46.864;15.216;2023-02-28T17:43:47;2.80;99.90
1678;DHT22;6034;46.864;15.216;2023-02-28T17:46:17;2.70;99.90
1678;DHT22;6034;46.864;15.216;2023-02-28T17:48:49;2.70;99.90
1678;DHT22;6034;46.864;15.216;2023-02-28T17:51:19;2.70;99.90
1678;DHT22;6034;46.864;15.216;2023-02-28T17:53:47;2.70;99.90
1678;DHT22;6034;46.864;15.216;2023-02-28T17:56:17;2.70;99.90
1678;DHT22;6034;46.864;15.216;2023-02-28T17:58:45;2.70;99.90
1678;DHT22;6034;46.864;15.216;2023-02-28T18:01:12;2.70;99.90
1678;DHT22;6034;46.864;15.216;2023-02-28T18:03:40;2.70;99.90
1678;DHT22;6034;46.864;15.216;2023-02-28T18:06:14;2.70;99.90
1678;DHT22;6034;46.864;15.216;2023-02-28T18:08:42;2.70;99.90
1678;DHT22;6034;46.864;15.216;2023-02-28T18:11:10;2.70;99.90
1678;DHT22;6034;46.864;15.216;2023-02-28T18:13:48;2.70;99.90
1678;DHT22;6034;46.864;15.216;2023-02-28T18:16:16;2.70;99.90
1678;DHT22;6034;46.864;15.216;2023-02-28T18:18:44;2.60;99.90
1678;DHT22;6034;46.864;15.216;2023-02-28T18:21:15;2.70;99.90
1678;DHT22;6034;46.864;15.216;2023-02-28T18:23:43;2.60;99.90
1678;DHT22;6034;46.864;15.216;2023-02-28T18:26:16;2.60;99.90
1678;DHT22;6034;46.864;15.216;2023-02-28T18:28:46;2.60;99.90
1678;DHT22;6034;46.864;15.216;2023-02-28T18:31:17;2.50;99.90
1678;DHT22;6034;46.864;15.216;2023-02-28T18:33:49;2.50;99.90
1678;DHT22;6034;46.864;15.216;2023-02-28T18:36:20;2.50;99.90
1678;DHT22;6034;46.864;15.216;2023-02-28T18:38:49;2.60;99.90
1678;DHT22;6034;46.864;15.216;2023-02-28T18:41:18;2.60;99.90
1678;DHT22;6034;46.864;15.216;2023-02-28T18:43:48;2.50;99.90
1678;DHT22;6034;46.864;15.216;2023-02-28T18:46:18;2.50;99.90
1678;DHT22;6034;46.864;15.216;2023-02-28T18:48:46;2.50;99.90
1678;DHT22;6034;46.864;15.216;2023-02-28T18:51:16;2.50;99.90
1678;DHT22;6034;46.864;15.216;2023-02-28T18:53:50;2.50;99.90
1678;DHT22;6034;46.864;15.216;2023-02-28T18:56:19;2.60;99.90
1678;DHT22;6034;46.864;15.216;2023-02-28T18:58:48;2.50;99.90
1678;DHT22;6034;46.864;15.216;2023-02-28T19:01:18;2.50;99.90
1678;DHT22;6034;46.864;15.216;2023-02-28T19:03:47;2.50;99.90
1678;DHT22;6034;46.864;15.216;2023-02-28T19:06:16;2.50;99.90
1678;DHT22;6034;46.864;15.216;2023-02-28T19:08:45;2.40;99.90
1678;DHT22;6034;46.864;15.216;2023-02-28T19:11:19;2.40;99.90
1678;DHT22;6034;46.864;15.216;2023-02-28T19:13:48;2.40;99.90
1678;DHT22;6034;46.864;15.216;2023-02-28T19:16:17;2.40;99.90
1678;DHT22;6034;46.864;15.216;2023-02-28T19:18:47;2.30;99.90
1678;DHT22;6034;46.864;15.216;2023-02-28T19:21:16;2.30;99.90
1678;DHT22;6034;46.864;15.216;2023-02-28T19:23:51;2.40;99.90
1678;DHT22;6034;46.864;15.216;2023-02-28T19:26:23;2.50;99.90
1678;DHT22;6034;46.864;15.216;2023-02-28T19:28:51;2.50;99.90
1678;DHT22;6034;46.864;15.216;2023-02-28T19:31:21;2.40;99.90
1678;DHT22;6034;46.864;15.216;2023-02-28T19:33:50;2.50;99.90
1678;DHT22;6034;46.864;15.216;2023-02-28T19:36:20;2.50;99.90
1678;DHT22;6034;46.864;15.216;2023-02-28T19:38:49;2.50;99.90
1678;DHT22;6034;46.864;15.216;2023-02-28T19:41:22;2.50;99.90
1678;DHT22;6034;46.864;15.216;2023-02-28T19:43:52;2.50;99.90
1678;DHT22;6034;46.864;15.216;2023-02-28T19:46:20;2.50;99.90
1678;DHT22;6034;46.864;15.216;2023-02-28T19:48:48;2.50;99.90
1678;DHT22;6034;46.864;15.216;2023-02-28T19:51:19;2.40;99.90
1678;DHT22;6034;46.864;15.216;2023-02-28T19:53:49;2.40;99.90
1678;DHT22;6034;46.864;15.216;2023-02-28T19:56:17;2.40;99.90
1678;DHT22;6034;46.864;15.216;2023-02-28T19:58:48;2.40;99.90
1678;DHT22;6034;46.864;15.216;2023-02-28T20:01:18;2.40;99.90
1678;DHT22;6034;46.864;15.216;2023-02-28T20:03:47;2.40;99.90
1678;DHT22;6034;46.864;15.216;2023-02-28T20:06:16;2.40;99.90
1678;DHT22;6034;46.864;15.216;2023-02-28T20:08:45;2.40;99.90
1678;DHT22;6034;46.864;15.216;2023-02-28T20:11:15;2.50;99.90
1678;DHT22;6034;46.864;15.216;2023-02-28T20:13:47;2.50;99.90
1678;DHT22;6034;46.864;15.216;2023-02-28T20:16:17;2.50;99.90
1678;DHT22;6034;46.864;15.216;2023-02-28T20:18:49;2.40;99.90
1678;DHT22;6034;46.864;15.216;2023-02-28T20:21:17;2.30;99.90
1678;DHT22;6034;46.864;15.216;2023-02-28T20:23:47;2.30;99.90
1678;DHT22;6034;46.864;15.216;2023-02-28T20:26:17;2.30;99.90
1678;DHT22;6034;46.864;15.216;2023-02-28T20:28:48;2.30;99.90
1678;DHT22;6034;46.864;15.216;2023-02-28T20:31:17;2.40;99.90
1678;DHT22;6034;46.864;15.216;2023-02-28T20:33:49;2.40;99.90
1678;DHT22;6034;46.864;15.216;2023-02-28T20:36:18;2.40;99.90
1678;DHT22;6034;46.864;15.216;2023-02-28T20:38:47;2.40;99.90
1678;DHT22;6034;46.864;15.216;2023-02-28T20:41:18;2.40;99.90
1678;DHT22;6034;46.864;15.216;2023-02-28T20:43:52;2.40;99.90
1678;DHT22;6034;46.864;15.216;2023-02-28T20:46:21;2.40;99.90
1678;DHT22;6034;46.864;15.216;2023-02-28T20:48:49;2.40;99.90
1678;DHT22;6034;46.864;15.216;2023-02-28T20:51:19;2.40;99.90
1678;DHT22;6034;46.864;15.216;2023-02-28T20:53:47;2.40;99.90
1678;DHT22;6034;46.864;15.216;2023-02-28T20:56:17;2.40;99.90
1678;DHT22;6034;46.864;15.216;2023-02-28T20:58:49;2.50;99.90
1678;DHT22;6034;46.864;15.216;2023-02-28T21:01:19;2.40;99.90
1678;DHT22;6034;46.864;15.216;2023-02-28T21:03:52;2.40;99.90
1678;DHT22;6034;46.864;15.216;2023-02-28T21:06:22;2.40;99.90
1678;DHT22;6034;46.864;15.216;2023-02-28T21:08:52;2.40;99.90
1678;DHT22;6034;46.864;15.216;2023-02-28T21:11:23;2.50;99.90
1678;DHT22;6034;46.864;15.216;2023-02-28T21:13:53;2.60;99.90
1678;DHT22;6034;46.864;15.216;2023-02-28T21:16:23;2.60;99.90
1678;DHT22;6034;46.864;15.216;2023-02-28T21:18:51;2.50;99.90
1678;DHT22;6034;46.864;15.216;2023-02-28T21:21:20;2.40;99.90
1678;DHT22;6034;46.864;15.216;2023-02-28T21:23:49;2.40;99.90
1678;DHT22;6034;46.864;15.216;2023-02-28T21:26:18;2.40;99.90
1678;DHT22;6034;46.864;15.216;2023-02-28T21:28:48;2.40;99.90
1678;DHT22;6034;46.864;15.216;2023-02-28T21:31:18;2.40;99.90
1678;DHT22;6034;46.864;15.216;2023-02-28T21:33:46;2.40;99.90
1678;DHT22;6034;46.864;15.216;2023-02-28T21:36:16;2.40;99.90
1678;DHT22;6034;46.864;15.216;2023-02-28T21:38:44;2.40;99.90
1678;DHT22;6034;46.864;15.216;2023-02-28T21:41:13;2.40;99.90
1678;DHT22;6034;46.864;15.216;2023-02-28T21:43:41;2.40;99.90
1678;DHT22;6034;46.864;15.216;2023-02-28T21:46:10;2.30;99.90
1678;DHT22;6034;46.864;15.216;2023-02-28T21:48:40;2.40;99.90
1678;DHT22;6034;46.864;15.216;2023-02-28T21:51:10;2.30;99.90
1678;DHT22;6034;46.864;15.216;2023-02-28T21:53:39;2.40;99.90
1678;DHT22;6034;46.864;15.216;2023-02-28T21:56:07;2.40;99.90
1678;DHT22;6034;46.864;15.216;2023-02-28T21:58:36;2.40;99.90
1678;DHT22;6034;46.864;15.216;2023-02-28T22:01:04;2.40;99.90
1678;DHT22;6034;46.864;15.216;2023-02-28T22:03:32;2.50;99.90
1678;DHT22;6034;46.864;15.216;2023-02-28T22:06:07;2.50;99.90
1678;DHT22;6034;46.864;15.216;2023-02-28T22:08:34;2.50;99.90
1678;DHT22;6034;46.864;15.216;2023-02-28T22:11:02;2.50;99.90
1678;DHT22;6034;46.864;15.216;2023-02-28T22:13:31;2.60;99.90
1678;DHT22;6034;46.864;15.216;2023-02-28T22:16:01;2.50;99.90
1678;DHT22;6034;46.864;15.216;2023-02-28T22:18:29;2.50;99.90
1678;DHT22;6034;46.864;15.216;2023-02-28T22:20:56;2.50;99.90
1678;DHT22;6034;46.864;15.216;2023-02-28T22:23:24;2.50;99.90
1678;DHT22;6034;46.864;15.216;2023-02-28T22:25:52;2.60;99.90
1678;DHT22;6034;46.864;15.216;2023-02-28T22:28:19;2.50;99.90
1678;DHT22;6034;46.864;15.216;2023-02-28T22:30:47;2.50;99.90
1678;DHT22;6034;46.864;15.216;2023-02-28T22:33:15;2.50;99.90
1678;DHT22;6034;46.864;15.216;2023-02-28T22:35:44;2.50;99.90
1678;DHT22;6034;46.864;15.216;2023-02-28T22:38:11;2.50;99.90
1678;DHT22;6034;46.864;15.216;2023-02-28T22:40:40;2.50;99.90
1678;DHT22;6034;46.864;15.216;2023-02-28T22:43:07;2.50;99.90
1678;DHT22;6034;46.864;15.216;2023-02-28T22:45:35;2.50;99.90
1678;DHT22;6034;46.864;15.216;2023-02-28T22:48:03;2.50;99.90
1678;DHT22;6034;46.864;15.216;2023-02-28T22:50:30;2.50;99.90
1678;DHT22;6034;46.864;15.216;2023-02-28T22:52:57;2.60;99.90